Time;durP1;ratioP1;P1;durP2;ratioP2;P2;SDS_P1;SDS_P2;PMS_P1;PMS_P2;Temp;Humidity;BMP_temperature;BMP_pressure;BME280_temperature;BME280_humidity;BME280_pressure;Samples;Min_cycle;Max_cycle;Signal;HPM_P1;HPM_P2
2020/12/19 00:01:14;;;;;;;7.30;6.13;;;;;;;;;;5052203;28;20424;-55
2020/12/19 00:03:39;;;;;;;8.17;6.10;;;;;;;;;;5048288;28;20435;-54
2020/12/19 00:06:08;;;;;;;9.63;6.20;;;;;;;;;;5052837;28;20436;-56
2020/12/19 00:08:34;;;;;;;8.90;6.23;;;;;;;;;;5052450;28;20408;-57
2020/12/19 00:11:00;;;;;;;10.23;6.10;;;;;;;;;;5051911;28;20519;-58
2020/12/19 00:13:26;;;;;;;7.90;6.40;;;;;;;;;;5049176;28;20448;-54
2020/12/19 00:15:52;;;;;;;8.20;5.80;;;;;;;;;;5052004;28;20422;-57
2020/12/19 00:18:18;;;;;;;6.60;5.87;;;;;;;;;;5051108;28;20779;-55
2020/12/19 00:20:44;;;;;;;6.63;5.73;;;;;;;;;;5051894;28;20641;-55
2020/12/19 00:23:10;;;;;;;7.57;5.57;;;;;;;;;;5052288;28;20411;-56
2020/12/19 00:25:36;;;;;;;6.53;5.40;;;;;;;;;;5051829;28;20412;-57
2020/12/19 00:28:02;;;;;;;7.23;6.17;;;;;;;;;;5052087;28;20408;-55
2020/12/19 00:30:28;;;;;;;5.93;5.33;;;;;;;;;;5051733;28;20444;-54
2020/12/19 00:32:54;;;;;;;14.63;9.83;;;;;;;;;;5048643;28;20966;-57
2020/12/19 00:35:20;;;;;;;6.47;5.80;;;;;;;;;;5051286;28;20979;-57
2020/12/19 00:37:46;;;;;;;7.70;5.53;;;;;;;;;;5051849;28;20764;-55
2020/12/19 00:40:12;;;;;;;8.30;5.90;;;;;;;;;;5051605;28;20494;-57
2020/12/19 00:42:39;;;;;;;5.70;5.10;;;;;;;;;;5051731;28;20413;-56
2020/12/19 00:45:06;;;;;;;9.00;5.80;;;;;;;;;;5051847;28;20411;-57
2020/12/19 00:47:34;;;;;;;6.33;4.70;;;;;;;;;;5051600;28;20405;-56
2020/12/19 00:50:01;;;;;;;5.80;5.20;;;;;;;;;;5051455;28;20421;-55
2020/12/19 00:52:27;;;;;;;5.10;4.60;;;;;;;;;;5051624;28;20535;-58
2020/12/19 00:54:53;;;;;;;6.20;5.60;;;;;;;;;;5051640;28;20389;-57
2020/12/19 00:57:19;;;;;;;6.03;4.83;;;;;;;;;;5051619;28;20879;-57
2020/12/19 00:59:45;;;;;;;7.33;5.70;;;;;;;;;;5051148;28;20846;-56
2020/12/19 01:02:11;;;;;;;5.13;4.63;;;;;;;;;;5050630;28;20854;-56
2020/12/19 01:04:37;;;;;;;7.07;5.70;;;;;;;;;;5047197;28;20493;-56
2020/12/19 01:07:03;;;;;;;7.50;5.30;;;;;;;;;;5051458;28;20412;-55
2020/12/19 01:09:29;;;;;;;6.00;5.17;;;;;;;;;;5050843;28;20485;-56
2020/12/19 01:11:55;;;;;;;6.60;5.37;;;;;;;;;;5051248;28;20811;-57
2020/12/19 01:14:21;;;;;;;6.00;5.40;;;;;;;;;;5051161;28;20393;-56
2020/12/19 01:16:47;;;;;;;5.67;5.10;;;;;;;;;;5051304;28;20412;-58
2020/12/19 01:19:13;;;;;;;7.13;5.83;;;;;;;;;;5050868;28;20406;-56
2020/12/19 01:21:38;;;;;;;6.30;5.70;;;;;;;;;;5051085;28;20404;-57
2020/12/19 01:24:04;;;;;;;7.20;6.00;;;;;;;;;;5051100;28;20497;-58
2020/12/19 01:26:30;;;;;;;9.83;6.23;;;;;;;;;;5051223;28;20408;-58
2020/12/19 01:28:56;;;;;;;5.87;5.37;;;;;;;;;;5050984;28;20894;-57
2020/12/19 01:31:23;;;;;;;8.53;6.70;;;;;;;;;;5050615;28;20903;-57
2020/12/19 01:33:49;;;;;;;7.40;5.90;;;;;;;;;;5049873;28;20417;-57
2020/12/19 01:36:20;;;;;;;6.20;5.43;;;;;;;;;;5048094;28;20436;-55
2020/12/19 01:38:46;;;;;;;8.53;6.60;;;;;;;;;;5050824;28;20450;-57
2020/12/19 01:41:12;;;;;;;8.20;6.20;;;;;;;;;;5050476;28;20833;-57
2020/12/19 01:43:42;;;;;;;11.30;6.67;;;;;;;;;;5050871;28;20400;-54
2020/12/19 01:46:08;;;;;;;8.27;6.60;;;;;;;;;;5050694;28;20399;-57
2020/12/19 01:48:35;;;;;;;6.90;6.20;;;;;;;;;;5050100;28;20772;-57
2020/12/19 01:51:01;;;;;;;6.83;6.17;;;;;;;;;;5050412;28;20427;-56
2020/12/19 01:53:27;;;;;;;8.87;7.40;;;;;;;;;;5050700;28;20516;-57
2020/12/19 01:55:53;;;;;;;8.23;6.80;;;;;;;;;;5050658;28;20407;-58
2020/12/19 01:58:19;;;;;;;6.80;5.83;;;;;;;;;;5050314;28;20485;-56
2020/12/19 02:00:45;;;;;;;9.90;7.27;;;;;;;;;;5049702;28;20875;-55
2020/12/19 02:03:11;;;;;;;8.40;6.60;;;;;;;;;;5048287;28;20412;-56
2020/12/19 02:05:38;;;;;;;7.77;6.63;;;;;;;;;;5047854;28;20452;-57
2020/12/19 02:08:06;;;;;;;9.80;6.70;;;;;;;;;;5050417;28;20416;-57
2020/12/19 02:10:34;;;;;;;7.07;6.33;;;;;;;;;;5050204;28;20490;-56
2020/12/19 02:13:01;;;;;;;7.20;6.50;;;;;;;;;;5050385;28;20484;-56
2020/12/19 02:15:27;;;;;;;7.37;6.37;;;;;;;;;;5050468;28;20504;-57
2020/12/19 02:17:53;;;;;;;8.93;7.60;;;;;;;;;;5050398;28;20888;-55
2020/12/19 02:20:19;;;;;;;6.90;6.20;;;;;;;;;;5050210;28;20428;-58
2020/12/19 02:22:45;;;;;;;7.43;6.60;;;;;;;;;;5050331;28;20401;-56
2020/12/19 02:25:11;;;;;;;7.90;7.00;;;;;;;;;;5050449;28;20408;-57
2020/12/19 02:27:37;;;;;;;7.00;6.30;;;;;;;;;;5050246;28;20440;-55
2020/12/19 02:30:03;;;;;;;10.83;7.43;;;;;;;;;;5080479;23;20529;-50
2020/12/19 02:32:29;;;;;;;10.83;7.63;;;;;;;;;;5069394;28;20493;-47
2020/12/19 02:34:55;;;;;;;7.57;6.77;;;;;;;;;;5082191;28;20423;-48
2020/12/19 02:37:21;;;;;;;8.43;6.90;;;;;;;;;;5090549;28;20410;-48
2020/12/19 02:39:47;;;;;;;10.50;7.40;;;;;;;;;;5088245;28;20850;-48
2020/12/19 02:42:13;;;;;;;14.13;7.23;;;;;;;;;;5070358;28;20402;-48
2020/12/19 02:44:39;;;;;;;10.77;7.13;;;;;;;;;;5070162;28;20410;-49
2020/12/19 02:47:05;;;;;;;9.80;7.70;;;;;;;;;;5070267;28;20478;-48
2020/12/19 02:49:31;;;;;;;10.90;8.20;;;;;;;;;;5069854;28;20490;-49
2020/12/19 02:51:57;;;;;;;9.67;7.30;;;;;;;;;;5070024;28;20462;-49
2020/12/19 02:54:23;;;;;;;10.30;6.90;;;;;;;;;;5070072;28;20413;-50
2020/12/19 02:56:49;;;;;;;8.57;7.30;;;;;;;;;;5070239;28;20393;-47
2020/12/19 02:59:15;;;;;;;8.83;7.67;;;;;;;;;;5071321;28;20427;-52
2020/12/19 03:01:41;;;;;;;7.93;6.80;;;;;;;;;;5073817;28;20418;-50
2020/12/19 03:04:07;;;;;;;9.90;8.00;;;;;;;;;;5072100;28;20427;-49
2020/12/19 03:06:33;;;;;;;7.90;7.10;;;;;;;;;;5073610;28;20414;-47
2020/12/19 03:08:59;;;;;;;11.03;7.43;;;;;;;;;;5073693;28;20395;-50
2020/12/19 03:11:26;;;;;;;9.63;6.83;;;;;;;;;;5073313;28;20797;-48
2020/12/19 03:13:52;;;;;;;9.47;6.80;;;;;;;;;;5073700;28;20467;-49
2020/12/19 03:16:18;;;;;;;9.73;7.77;;;;;;;;;;5073469;28;20403;-51
2020/12/19 03:18:44;;;;;;;11.60;8.60;;;;;;;;;;5073477;28;20407;-48
2020/12/19 03:21:10;;;;;;;8.90;7.73;;;;;;;;;;5073046;28;20510;-49
2020/12/19 03:23:36;;;;;;;7.77;7.00;;;;;;;;;;5073481;28;20404;-49
2020/12/19 03:26:01;;;;;;;9.63;6.90;;;;;;;;;;5073447;28;20406;-48
2020/12/19 03:28:27;;;;;;;9.63;7.77;;;;;;;;;;5073288;28;20407;-48
2020/12/19 03:30:53;;;;;;;9.17;7.00;;;;;;;;;;5072900;28;20526;-47
2020/12/19 03:33:19;;;;;;;12.83;7.17;;;;;;;;;;5070294;28;20557;-48
2020/12/19 03:35:45;;;;;;;9.00;7.30;;;;;;;;;;5073126;28;20415;-48
2020/12/19 03:38:11;;;;;;;15.50;7.57;;;;;;;;;;5073269;28;20406;-49
2020/12/19 03:40:37;;;;;;;10.97;7.50;;;;;;;;;;5072868;28;20423;-47
2020/12/19 03:43:03;;;;;;;10.30;8.27;;;;;;;;;;5073070;28;20933;-48
2020/12/19 03:45:29;;;;;;;8.27;7.20;;;;;;;;;;5073167;28;20418;-47
2020/12/19 03:47:55;;;;;;;9.57;7.57;;;;;;;;;;5072966;28;20907;-48
2020/12/19 03:50:21;;;;;;;14.77;7.77;;;;;;;;;;5072736;28;20506;-47
2020/12/19 03:52:48;;;;;;;13.87;7.60;;;;;;;;;;5072982;28;20502;-48
2020/12/19 03:55:14;;;;;;;12.17;8.13;;;;;;;;;;5073112;28;20491;-48
2020/12/19 03:57:39;;;;;;;10.83;8.30;;;;;;;;;;5072903;28;20442;-48
2020/12/19 04:00:06;;;;;;;10.87;7.90;;;;;;;;;;5072545;28;20866;-48
2020/12/19 04:02:32;;;;;;;9.10;8.20;;;;;;;;;;5072705;28;20418;-47
2020/12/19 04:04:58;;;;;;;12.00;9.30;;;;;;;;;;5068945;28;20435;-47
2020/12/19 04:07:24;;;;;;;12.93;8.87;;;;;;;;;;5072618;28;20444;-48
2020/12/19 04:09:50;;;;;;;10.80;8.90;;;;;;;;;;5072157;28;20908;-48
2020/12/19 04:12:17;;;;;;;11.20;8.27;;;;;;;;;;5072003;28;20866;-48
2020/12/19 04:14:43;;;;;;;10.07;7.73;;;;;;;;;;5072482;28;20480;-47
2020/12/19 04:17:09;;;;;;;11.27;7.90;;;;;;;;;;5072506;28;20395;-48
2020/12/19 04:19:36;;;;;;;13.00;9.17;;;;;;;;;;5071934;28;20823;-48
2020/12/19 04:22:03;;;;;;;11.10;8.37;;;;;;;;;;5072429;28;20409;-48
2020/12/19 04:24:29;;;;;;;10.70;8.83;;;;;;;;;;5072204;28;20412;-48
2020/12/19 04:26:55;;;;;;;12.23;9.53;;;;;;;;;;5072265;28;20413;-47
2020/12/19 04:29:21;;;;;;;11.80;8.87;;;;;;;;;;5071869;28;20841;-47
2020/12/19 04:31:47;;;;;;;11.13;9.33;;;;;;;;;;5071933;28;20443;-48
2020/12/19 04:34:13;;;;;;;10.87;8.47;;;;;;;;;;5068839;28;20426;-47
2020/12/19 04:36:39;;;;;;;11.70;9.20;;;;;;;;;;5072109;28;20440;-47
2020/12/19 04:39:05;;;;;;;14.00;10.33;;;;;;;;;;5071816;28;20885;-47
2020/12/19 04:41:33;;;;;;;11.23;9.80;;;;;;;;;;5071848;28;20427;-48
2020/12/19 04:44:01;;;;;;;16.00;9.07;;;;;;;;;;5071757;28;20905;-48
2020/12/19 04:46:28;;;;;;;12.57;9.70;;;;;;;;;;5071883;28;20399;-48
2020/12/19 04:48:54;;;;;;;13.80;10.10;;;;;;;;;;5071748;28;20416;-47
2020/12/19 04:51:22;;;;;;;12.43;9.57;;;;;;;;;;5071363;28;20436;-48
2020/12/19 04:53:48;;;;;;;14.23;9.20;;;;;;;;;;5071682;28;20453;-48
2020/12/19 04:56:15;;;;;;;13.87;10.13;;;;;;;;;;5071556;28;20412;-48
2020/12/19 04:58:41;;;;;;;12.67;9.53;;;;;;;;;;5071533;28;20933;-48
2020/12/19 05:01:07;;;;;;;13.23;9.60;;;;;;;;;;5071114;28;20427;-48
2020/12/19 05:03:33;;;;;;;14.10;9.60;;;;;;;;;;5067562;28;20435;-49
2020/12/19 05:06:00;;;;;;;12.97;11.40;;;;;;;;;;5071368;28;20949;-48
2020/12/19 05:08:26;;;;;;;13.43;10.13;;;;;;;;;;5071492;28;20402;-48
2020/12/19 05:10:52;;;;;;;13.43;9.80;;;;;;;;;;5070981;28;20794;-48
2020/12/19 05:13:19;;;;;;;14.53;10.30;;;;;;;;;;5071242;28;20450;-48
2020/12/19 05:15:45;;;;;;;12.30;10.20;;;;;;;;;;5071132;28;20407;-51
2020/12/19 05:18:11;;;;;;;13.60;9.90;;;;;;;;;;5071235;28;20396;-49
2020/12/19 05:20:38;;;;;;;11.23;8.90;;;;;;;;;;5070783;28;20852;-49
2020/12/19 05:23:08;;;;;;;15.13;10.27;;;;;;;;;;5070266;28;20886;-48
2020/12/19 05:25:37;;;;;;;15.20;10.93;;;;;;;;;;5071155;28;20411;-47
2020/12/19 05:28:03;;;;;;;13.63;10.60;;;;;;;;;;5070942;28;20407;-50
2020/12/19 05:30:30;;;;;;;14.53;10.70;;;;;;;;;;5070609;28;20526;-49
2020/12/19 05:32:56;;;;;;;11.63;9.77;;;;;;;;;;5071084;28;20462;-49
2020/12/19 05:35:23;;;;;;;13.70;9.60;;;;;;;;;;5067032;28;20461;-48
2020/12/19 05:38:02;;;;;;;14.23;10.90;;;;;;;;;;5070886;28;20893;-48
2020/12/19 05:40:28;;;;;;;14.20;10.73;;;;;;;;;;5070639;28;20414;-47
2020/12/19 05:42:55;;;;;;;13.20;10.37;;;;;;;;;;5070686;28;20472;-49
2020/12/19 05:45:22;;;;;;;13.67;10.30;;;;;;;;;;5070931;28;20458;-48
2020/12/19 05:47:48;;;;;;;14.30;10.90;;;;;;;;;;5070714;28;20960;-48
2020/12/19 05:50:15;;;;;;;13.90;10.47;;;;;;;;;;5070580;28;20488;-48
2020/12/19 05:52:42;;;;;;;12.07;9.77;;;;;;;;;;5070587;28;20442;-49
2020/12/19 05:55:12;;;;;;;16.30;9.70;;;;;;;;;;5070789;28;20395;-50
2020/12/19 05:57:38;;;;;;;11.87;10.47;;;;;;;;;;5070601;28;20469;-49
2020/12/19 06:00:06;;;;;;;15.10;9.97;;;;;;;;;;5070471;28;20426;-47
2020/12/19 06:02:32;;;;;;;13.40;10.70;;;;;;;;;;5070738;28;20433;-49
2020/12/19 06:05:01;;;;;;;13.50;10.83;;;;;;;;;;5069159;28;20427;-48
2020/12/19 06:07:35;;;;;;;13.40;10.97;;;;;;;;;;5070708;28;20772;-48
2020/12/19 06:10:02;;;;;;;12.17;9.57;;;;;;;;;;5070113;28;20477;-50
2020/12/19 06:12:41;;;;;;;14.30;10.70;;;;;;;;;;5070569;28;20832;-48
2020/12/19 06:15:09;;;;;;;14.20;10.70;;;;;;;;;;5070494;28;20905;-50
2020/12/19 06:17:57;;;;;;;13.00;10.57;;;;;;;;;;5070642;28;20396;-47
2020/12/19 06:20:23;;;;;;;15.00;11.50;;;;;;;;;;5070140;28;20795;-47
2020/12/19 06:22:50;;;;;;;13.20;9.37;;;;;;;;;;5070616;28;20774;-47
2020/12/19 06:25:35;;;;;;;12.33;10.77;;;;;;;;;;5070439;28;20946;-47
2020/12/19 06:28:01;;;;;;;14.07;12.10;;;;;;;;;;5070519;28;20431;-47
2020/12/19 06:30:30;;;;;;;13.00;9.70;;;;;;;;;;5070018;28;20794;-47
2020/12/19 06:33:13;;;;;;;15.17;11.87;;;;;;;;;;5070320;28;20450;-50
2020/12/19 06:35:47;;;;;;;13.30;11.70;;;;;;;;;;5074078;28;20401;-49
2020/12/19 06:38:13;;;;;;;13.77;11.93;;;;;;;;;;5074403;28;20382;-49
2020/12/19 06:40:39;;;;;;;14.60;10.90;;;;;;;;;;5073790;28;20422;-50
2020/12/19 06:43:11;;;;;;;20.37;11.17;;;;;;;;;;5074281;28;20398;-48
2020/12/19 06:45:38;;;;;;;15.30;11.80;;;;;;;;;;5074025;28;20526;-48
2020/12/19 06:48:04;;;;;;;14.87;11.17;;;;;;;;;;5074310;28;20403;-48
2020/12/19 06:50:55;;;;;;;18.17;12.00;;;;;;;;;;5073881;28;20774;-48
2020/12/19 06:53:21;;;;;;;20.00;12.67;;;;;;;;;;5074395;28;20833;-47
2020/12/19 06:55:47;;;;;;;15.73;11.60;;;;;;;;;;5074129;28;20399;-47
2020/12/19 06:58:26;;;;;;;13.87;11.17;;;;;;;;;;5074381;28;20449;-47
2020/12/19 07:00:52;;;;;;;17.30;12.07;;;;;;;;;;5073891;28;20422;-47
2020/12/19 07:03:35;;;;;;;18.03;12.93;;;;;;;;;;5072076;28;20430;-48
2020/12/19 07:06:11;;;;;;;19.27;12.63;;;;;;;;;;5073903;28;20418;-47
2020/12/19 07:08:37;;;;;;;15.80;11.30;;;;;;;;;;5073969;28;20409;-47
2020/12/19 07:11:03;;;;;;;17.13;13.23;;;;;;;;;;5073438;28;20417;-48
2020/12/19 07:13:48;;;;;;;17.87;12.57;;;;;;;;;;5073727;28;20454;-47
2020/12/19 07:16:14;;;;;;;17.67;12.07;;;;;;;;;;5073566;28;20402;-49
2020/12/19 07:18:40;;;;;;;16.63;11.63;;;;;;;;;;5073530;28;20395;-49
2020/12/19 07:21:08;;;;;;;15.70;11.67;;;;;;;;;;5073360;28;20770;-47
2020/12/19 07:23:35;;;;;;;20.10;13.07;;;;;;;;;;5073591;28;20405;-47
2020/12/19 07:26:01;;;;;;;15.70;11.93;;;;;;;;;;5073487;28;20399;-47
2020/12/19 07:28:27;;;;;;;18.10;12.43;;;;;;;;;;5073218;28;20755;-47
2020/12/19 07:30:53;;;;;;;19.53;12.50;;;;;;;;;;5072100;28;20809;-47
2020/12/19 07:33:19;;;;;;;20.10;12.50;;;;;;;;;;5069878;28;20460;-48
2020/12/19 07:35:45;;;;;;;17.10;11.80;;;;;;;;;;5073318;28;20395;-47
2020/12/19 07:38:11;;;;;;;19.30;13.13;;;;;;;;;;5073111;28;20802;-48
2020/12/19 07:40:38;;;;;;;15.80;11.10;;;;;;;;;;5072851;28;20851;-48
2020/12/19 07:43:05;;;;;;;23.10;13.40;;;;;;;;;;5073026;28;20490;-48
2020/12/19 07:45:31;;;;;;;17.53;13.47;;;;;;;;;;5071990;28;20412;-48
2020/12/19 07:47:57;;;;;;;17.17;11.47;;;;;;;;;;5072862;28;20471;-48
2020/12/19 07:50:33;;;;;;;18.40;12.60;;;;;;;;;;5068524;28;20459;-48
2020/12/19 07:52:59;;;;;;;15.30;11.10;;;;;;;;;;5072709;28;20547;-49
2020/12/19 07:55:25;;;;;;;17.87;12.17;;;;;;;;;;5072866;28;20956;-48
2020/12/19 07:57:54;;;;;;;15.00;10.40;;;;;;;;;;5072879;28;20409;-49
2020/12/19 08:00:20;;;;;;;15.40;10.93;;;;;;;;;;5058018;28;20474;-49
2020/12/19 08:02:46;;;;;;;15.63;11.37;;;;;;;;;;5051219;28;20890;-49
2020/12/19 08:05:12;;;;;;;13.43;10.83;;;;;;;;;;5052563;28;20530;-50
2020/12/19 08:07:38;;;;;;;17.03;11.07;;;;;;;;;;5052635;28;20408;-48
2020/12/19 08:10:05;;;;;;;20.93;11.80;;;;;;;;;;5052262;28;20460;-48
2020/12/19 08:12:32;;;;;;;16.07;12.17;;;;;;;;;;5052587;28;20462;-49
2020/12/19 08:15:00;;;;;;;13.73;10.53;;;;;;;;;;5052320;28;20511;-48
2020/12/19 08:17:26;;;;;;;15.70;11.20;;;;;;;;;;5052494;28;20405;-48
2020/12/19 08:19:53;;;;;;;15.13;10.67;;;;;;;;;;5050532;28;20408;-48
2020/12/19 08:22:20;;;;;;;18.67;11.47;;;;;;;;;;5051381;28;20409;-48
2020/12/19 08:24:50;;;;;;;14.57;11.00;;;;;;;;;;5051539;28;20477;-48
2020/12/19 08:27:43;;;;;;;13.90;10.47;;;;;;;;;;5052312;28;20413;-48
2020/12/19 08:30:09;;;;;;;14.60;11.23;;;;;;;;;;5064090;28;20829;-48
2020/12/19 08:32:35;;;;;;;20.07;10.73;;;;;;;;;;5066096;22;20477;-51
2020/12/19 08:35:02;;;;;;;13.50;9.83;;;;;;;;;;5052222;28;20405;-51
2020/12/19 08:37:28;;;;;;;14.67;9.83;;;;;;;;;;5051918;28;20914;-50
2020/12/19 08:40:04;;;;;;;11.47;9.63;;;;;;;;;;5063478;28;20424;-50
2020/12/19 08:42:32;;;;;;;13.30;9.57;;;;;;;;;;5054523;28;20421;-50
2020/12/19 08:45:16;;;;;;;13.00;9.60;;;;;;;;;;5052134;28;20424;-51
2020/12/19 08:47:42;;;;;;;13.40;10.10;;;;;;;;;;5051844;28;20398;-50
2020/12/19 08:50:08;;;;;;;13.80;9.50;;;;;;;;;;5051605;28;20398;-50
2020/12/19 08:52:34;;;;;;;12.20;9.63;;;;;;;;;;5051465;28;20873;-50
2020/12/19 08:55:00;;;;;;;16.73;9.63;;;;;;;;;;5051751;28;20473;-51
2020/12/19 08:57:27;;;;;;;12.40;10.03;;;;;;;;;;5051278;28;20405;-50
2020/12/19 08:59:53;;;;;;;11.00;8.80;;;;;;;;;;5048025;28;20429;-53
2020/12/19 09:02:21;;;;;;;10.77;8.53;;;;;;;;;;5051415;28;20429;-52
2020/12/19 09:04:48;;;;;;;10.43;8.67;;;;;;;;;;5051613;28;20444;-51
2020/12/19 09:07:14;;;;;;;8.80;7.67;;;;;;;;;;5051372;28;20911;-51
2020/12/19 09:09:39;;;;;;;11.03;9.13;;;;;;;;;;5051217;28;20932;-51
2020/12/19 09:12:09;;;;;;;10.00;8.33;;;;;;;;;;5051150;28;20495;-51
2020/12/19 09:14:35;;;;;;;9.90;7.57;;;;;;;;;;5051869;28;20747;-51
2020/12/19 09:17:01;;;;;;;8.73;7.53;;;;;;;;;;5051403;28;20416;-52
2020/12/19 09:19:27;;;;;;;8.70;7.87;;;;;;;;;;5051010;28;20409;-51
2020/12/19 09:21:57;;;;;;;10.57;7.60;;;;;;;;;;5051498;28;20425;-52
2020/12/19 09:24:23;;;;;;;9.83;7.27;;;;;;;;;;5051462;28;20420;-50
2020/12/19 09:26:49;;;;;;;7.70;7.00;;;;;;;;;;5051579;28;20750;-50
2020/12/19 09:29:15;;;;;;;7.93;7.20;;;;;;;;;;5048814;28;20421;-50
2020/12/19 09:31:41;;;;;;;8.10;7.30;;;;;;;;;;5051195;28;20447;-50
2020/12/19 09:34:07;;;;;;;8.73;7.30;;;;;;;;;;5051098;28;20457;-51
2020/12/19 09:36:33;;;;;;;7.27;6.57;;;;;;;;;;5051189;28;20404;-53
2020/12/19 09:38:59;;;;;;;7.50;6.43;;;;;;;;;;5050922;28;20367;-53
2020/12/19 09:41:25;;;;;;;6.90;6.30;;;;;;;;;;5050834;28;20409;-53
2020/12/19 09:43:51;;;;;;;8.53;7.60;;;;;;;;;;5050904;28;20531;-51
2020/12/19 09:46:17;;;;;;;8.60;6.20;;;;;;;;;;5051020;28;20402;-53
2020/12/19 09:48:43;;;;;;;6.27;5.67;;;;;;;;;;5050791;28;20417;-51
2020/12/19 09:51:09;;;;;;;6.77;6.17;;;;;;;;;;5042026;28;20790;-51
2020/12/19 09:53:36;;;;;;;8.07;7.23;;;;;;;;;;5030252;28;20463;-51
2020/12/19 09:56:02;;;;;;;8.10;7.13;;;;;;;;;;5030793;28;20380;-52
2020/12/19 09:58:28;;;;;;;8.03;6.97;;;;;;;;;;5032740;28;20452;-53
2020/12/19 10:00:54;;;;;;;8.80;6.73;;;;;;;;;;5050342;28;20887;-52
2020/12/19 10:03:20;;;;;;;7.73;6.43;;;;;;;;;;5050572;28;20383;-52
2020/12/19 10:05:47;;;;;;;6.73;6.07;;;;;;;;;;5050472;28;20405;-52
2020/12/19 10:08:14;;;;;;;6.93;6.23;;;;;;;;;;5051599;28;20770;-54
2020/12/19 10:10:43;;;;;;;7.53;6.20;;;;;;;;;;5056757;28;20397;-51
2020/12/19 10:13:09;;;;;;;7.60;6.13;;;;;;;;;;5057191;28;20450;-52
2020/12/19 10:15:35;;;;;;;6.93;6.03;;;;;;;;;;5057158;28;20397;-52
2020/12/19 10:18:01;;;;;;;7.00;6.00;;;;;;;;;;5056988;28;20433;-54
2020/12/19 10:20:27;;;;;;;7.97;5.57;;;;;;;;;;5056819;28;20425;-51
2020/12/19 10:22:53;;;;;;;6.53;5.80;;;;;;;;;;5057021;28;20375;-52
2020/12/19 10:25:19;;;;;;;7.00;5.27;;;;;;;;;;5057116;28;20892;-52
2020/12/19 10:27:45;;;;;;;4.73;4.33;;;;;;;;;;5055296;28;20886;-51
2020/12/19 10:30:11;;;;;;;7.30;6.50;;;;;;;;;;5056760;28;20492;-52
2020/12/19 10:32:37;;;;;;;11.20;6.27;;;;;;;;;;5056525;28;20439;-51
2020/12/19 10:35:06;;;;;;;7.70;5.83;;;;;;;;;;5057164;28;20371;-55
2020/12/19 10:37:33;;;;;;;6.70;5.57;;;;;;;;;;5056419;28;20463;-54
2020/12/19 10:39:59;;;;;;;5.80;5.30;;;;;;;;;;5037245;28;20561;-53
2020/12/19 10:42:25;;;;;;;7.13;5.77;;;;;;;;;;5036926;28;20937;-54
2020/12/19 10:44:51;;;;;;;5.70;5.20;;;;;;;;;;5036836;28;20384;-53
2020/12/19 10:47:17;;;;;;;6.87;6.00;;;;;;;;;;5036994;28;20410;-53
2020/12/19 10:49:43;;;;;;;6.13;5.53;;;;;;;;;;5036517;28;20388;-53
2020/12/19 10:52:09;;;;;;;6.37;5.73;;;;;;;;;;5036816;28;20845;-53
2020/12/19 10:54:35;;;;;;;6.07;5.37;;;;;;;;;;5036868;28;20394;-52
2020/12/19 10:57:01;;;;;;;6.50;5.80;;;;;;;;;;5036896;28;20740;-50
2020/12/19 10:59:29;;;;;;;7.37;5.20;;;;;;;;;;5049139;28;20448;-49
2020/12/19 11:01:55;;;;;;;5.97;5.47;;;;;;;;;;5056687;28;20559;-51
2020/12/19 11:04:21;;;;;;;5.67;5.17;;;;;;;;;;5056736;28;20413;-50
2020/12/19 11:06:47;;;;;;;6.27;5.40;;;;;;;;;;5056635;28;20771;-51
2020/12/19 11:09:13;;;;;;;4.57;4.17;;;;;;;;;;5056499;28;20393;-52
2020/12/19 11:11:39;;;;;;;8.90;5.17;;;;;;;;;;5056458;28;20836;-51
2020/12/19 11:14:05;;;;;;;5.70;5.20;;;;;;;;;;5056533;28;20510;-50
2020/12/19 11:16:31;;;;;;;5.97;5.03;;;;;;;;;;5056475;28;20877;-52
2020/12/19 11:18:57;;;;;;;5.73;5.13;;;;;;;;;;5056580;28;20478;-52
2020/12/19 11:21:24;;;;;;;4.87;4.37;;;;;;;;;;5053204;28;20815;-50
2020/12/19 11:23:50;;;;;;;7.50;5.33;;;;;;;;;;5053399;28;20863;-50
2020/12/19 11:26:20;;;;;;;5.10;4.70;;;;;;;;;;5053368;28;20771;-52
2020/12/19 11:28:50;;;;;;;5.23;4.73;;;;;;;;;;5049905;28;20555;-51
2020/12/19 11:31:16;;;;;;;4.97;4.53;;;;;;;;;;5053063;28;20437;-50
2020/12/19 11:33:42;;;;;;;5.13;4.50;;;;;;;;;;5053029;28;20539;-50
2020/12/19 11:36:08;;;;;;;7.73;4.87;;;;;;;;;;5053107;28;20982;-50
2020/12/19 11:38:34;;;;;;;9.00;3.97;;;;;;;;;;5052942;28;20484;-49
2020/12/19 11:41:00;;;;;;;4.50;4.13;;;;;;;;;;5052822;28;20418;-50
2020/12/19 11:43:26;;;;;;;4.43;4.07;;;;;;;;;;5052613;28;20404;-50
2020/12/19 11:45:52;;;;;;;7.60;4.63;;;;;;;;;;5053062;28;20964;-50
2020/12/19 11:48:18;;;;;;;4.50;4.10;;;;;;;;;;5052714;28;20783;-49
2020/12/19 11:50:44;;;;;;;5.00;4.50;;;;;;;;;;5052720;28;20801;-51
2020/12/19 11:53:10;;;;;;;4.10;3.73;;;;;;;;;;5052867;28;20456;-49
2020/12/19 11:55:36;;;;;;;5.00;4.03;;;;;;;;;;5052675;28;20405;-50
2020/12/19 11:58:02;;;;;;;4.20;3.90;;;;;;;;;;5050446;28;20412;-50
2020/12/19 12:00:28;;;;;;;4.13;3.83;;;;;;;;;;5051262;28;20421;-49
2020/12/19 12:02:54;;;;;;;3.80;3.50;;;;;;;;;;5052813;28;20509;-50
2020/12/19 12:05:20;;;;;;;4.57;4.17;;;;;;;;;;5052591;28;20911;-49
2020/12/19 12:07:46;;;;;;;7.03;4.47;;;;;;;;;;5052754;28;20463;-50
2020/12/19 12:10:12;;;;;;;4.30;4.00;;;;;;;;;;5052107;28;20408;-49
2020/12/19 12:12:38;;;;;;;4.40;4.00;;;;;;;;;;5052404;28;20492;-50
2020/12/19 12:15:04;;;;;;;7.93;4.13;;;;;;;;;;5052613;28;20953;-49
2020/12/19 12:17:30;;;;;;;5.33;4.83;;;;;;;;;;5052612;28;20380;-48
2020/12/19 12:19:56;;;;;;;8.80;4.33;;;;;;;;;;5052321;28;20737;-49
2020/12/19 12:22:22;;;;;;;4.73;4.00;;;;;;;;;;5052185;28;20496;-48
2020/12/19 12:24:48;;;;;;;5.10;4.40;;;;;;;;;;5052347;28;20394;-48
2020/12/19 12:27:14;;;;;;;5.00;4.17;;;;;;;;;;5052128;28;20522;-48
2020/12/19 12:29:40;;;;;;;4.40;4.00;;;;;;;;;;5050584;28;20519;-48
2020/12/19 12:32:06;;;;;;;5.80;5.00;;;;;;;;;;5051229;28;20871;-48
2020/12/19 12:34:32;;;;;;;6.20;4.00;;;;;;;;;;5052146;28;20607;-48
2020/12/19 12:36:58;;;;;;;5.20;4.70;;;;;;;;;;5052140;28;20394;-51
2020/12/19 12:39:24;;;;;;;6.77;4.87;;;;;;;;;;5051624;28;20897;-50
2020/12/19 12:41:50;;;;;;;5.07;4.13;;;;;;;;;;5051879;28;20433;-51
2020/12/19 12:44:16;;;;;;;4.80;3.50;;;;;;;;;;5051845;28;20462;-51
2020/12/19 12:46:42;;;;;;;4.47;4.07;;;;;;;;;;5051886;28;20491;-52
2020/12/19 12:49:08;;;;;;;3.90;3.53;;;;;;;;;;5051667;28;20752;-51
2020/12/19 12:51:34;;;;;;;4.07;3.77;;;;;;;;;;5051470;28;20432;-51
2020/12/19 12:54:00;;;;;;;4.00;3.70;;;;;;;;;;5051345;28;20445;-50
2020/12/19 12:56:26;;;;;;;5.17;4.47;;;;;;;;;;5051628;28;20488;-50
2020/12/19 12:58:53;;;;;;;4.77;4.10;;;;;;;;;;5048202;28;20967;-51
2020/12/19 13:01:19;;;;;;;5.63;4.53;;;;;;;;;;5051224;28;20447;-51
2020/12/19 13:03:45;;;;;;;4.83;3.90;;;;;;;;;;5047943;28;20516;-51
2020/12/19 13:06:11;;;;;;;3.90;3.60;;;;;;;;;;5051279;28;20441;-51
2020/12/19 13:08:37;;;;;;;4.27;3.90;;;;;;;;;;5051324;28;20791;-51
2020/12/19 13:11:04;;;;;;;4.60;4.17;;;;;;;;;;5051159;28;20475;-51
2020/12/19 13:13:30;;;;;;;4.93;3.30;;;;;;;;;;5051308;28;20534;-52
2020/12/19 13:15:56;;;;;;;5.20;4.47;;;;;;;;;;5051124;28;20885;-51
2020/12/19 13:18:21;;;;;;;6.33;3.67;;;;;;;;;;5051186;28;20842;-51
2020/12/19 13:20:47;;;;;;;5.33;3.70;;;;;;;;;;5051054;28;20384;-51
2020/12/19 13:23:13;;;;;;;4.50;4.10;;;;;;;;;;5050836;28;20729;-50
2020/12/19 13:25:40;;;;;;;6.60;3.93;;;;;;;;;;5051149;28;20397;-51
2020/12/19 13:28:07;;;;;;;3.30;3.10;;;;;;;;;;5047933;28;20420;-51
2020/12/19 13:30:33;;;;;;;3.60;3.40;;;;;;;;;;5050593;28;20409;-51
2020/12/19 13:32:59;;;;;;;3.47;3.17;;;;;;;;;;5050857;28;20986;-54
2020/12/19 13:35:25;;;;;;;4.10;3.07;;;;;;;;;;5051054;28;20907;-52
2020/12/19 13:37:51;;;;;;;3.90;3.40;;;;;;;;;;5050683;28;20395;-52
2020/12/19 13:40:17;;;;;;;3.40;3.10;;;;;;;;;;5050857;28;20402;-52
2020/12/19 13:42:43;;;;;;;4.00;3.07;;;;;;;;;;5050480;28;20424;-52
2020/12/19 13:45:10;;;;;;;3.30;3.00;;;;;;;;;;5050253;28;20394;-51
2020/12/19 13:47:36;;;;;;;3.83;3.53;;;;;;;;;;5050858;28;20408;-53
2020/12/19 13:50:04;;;;;;;4.07;3.40;;;;;;;;;;5050389;28;20402;-52
2020/12/19 13:52:29;;;;;;;5.00;3.40;;;;;;;;;;5050491;28;20423;-53
2020/12/19 13:54:55;;;;;;;3.43;3.17;;;;;;;;;;5050557;28;20401;-49
2020/12/19 13:57:21;;;;;;;3.43;3.07;;;;;;;;;;5047044;28;20927;-49
2020/12/19 13:59:47;;;;;;;7.60;3.13;;;;;;;;;;5050144;28;20387;-50
2020/12/19 14:02:13;;;;;;;3.67;3.27;;;;;;;;;;5050608;28;20427;-50
2020/12/19 14:04:40;;;;;;;3.50;3.20;;;;;;;;;;5050530;28;20401;-50
2020/12/19 14:07:06;;;;;;;3.03;2.80;;;;;;;;;;5050535;28;20380;-49
2020/12/19 14:09:33;;;;;;;3.20;2.90;;;;;;;;;;5050534;28;20449;-49
2020/12/19 14:12:03;;;;;;;3.87;2.80;;;;;;;;;;5050339;28;20404;-50
2020/12/19 14:14:29;;;;;;;3.20;2.90;;;;;;;;;;5050683;28;20412;-50
2020/12/19 14:16:55;;;;;;;4.43;3.30;;;;;;;;;;5050442;28;20387;-51
2020/12/19 14:19:21;;;;;;;4.83;3.37;;;;;;;;;;5050139;28;20892;-50
2020/12/19 14:21:46;;;;;;;3.03;2.83;;;;;;;;;;5050219;28;20429;-50
2020/12/19 14:24:12;;;;;;;3.80;3.47;;;;;;;;;;5050584;28;20416;-50
2020/12/19 14:26:38;;;;;;;3.50;3.13;;;;;;;;;;5050338;28;20504;-48
2020/12/19 14:29:04;;;;;;;4.20;3.10;;;;;;;;;;5048647;28;20429;-48
2020/12/19 14:31:30;;;;;;;2.87;2.67;;;;;;;;;;5050595;28;20440;-50
2020/12/19 14:33:56;;;;;;;3.10;2.90;;;;;;;;;;5050319;28;20460;-51